Terminal Aerodrome Forecast
Issued by NWS Tampa Bay Area, FL

Home | Current Version | Previous Version | Text Only | Print | Product List | Glossary On
Versions: 1 2 3 4 5 6 7 8 9 10 11 12 13 14 15 16 17 18 19 20 21 22 23 24 25 26 27
000
FTUS42 KTBW 172300
TAFTPA
TAF
KTPA 172337Z 1800/1824 07012G18KT P6SM VCSH BKN025 BKN050
      TEMPO 1801/1802 VRB18G28KT 3SM SHRA BKN015
     FM180300 08010KT P6SM SCT025 BKN100
     FM180800 09009KT P6SM SCT015 BKN025
     FM181400 13012KT P6SM VCSH SCT015 BKN025
     FM181700 16013G20KT P6SM VCSH SCT015 BKN030
     FM182000 19013G20KT P6SM VCSH SCT015 BKN030=

USA.gov is the U.S. government's official web portal to all federal, state and local government web resources and services.